Time;durP1;ratioP1;P1;durP2;ratioP2;P2;SDS_P1;SDS_P2;PMS_P1;PMS_P2;Temp;Humidity;BMP_temperature;BMP_pressure;BME280_temperature;BME280_humidity;BME280_pressure;Samples;Min_cycle;Max_cycle;Signal;HPM_P1;HPM_P2
2020/12/24 00:00:47;;;;;;;54.50;35.40;;;;;;;5.15;100.00;101694.84;1747567;81;22057;-79
2020/12/24 00:03:15;;;;;;;56.80;35.25;;;;;;;5.15;100.00;101700.83;1747534;82;21046;-79
2020/12/24 00:09:26;;;;;;;51.13;32.38;;;;;;;5.14;100.00;101700.42;1747753;81;21644;-79
2020/12/24 00:11:55;;;;;;;49.48;31.02;;;;;;;5.13;100.00;101696.18;1747344;82;21173;-80
2020/12/24 00:14:23;;;;;;;53.23;31.15;;;;;;;5.15;100.00;101695.69;1747541;82;21194;-80
2020/12/24 00:16:52;;;;;;;51.88;32.03;;;;;;;5.15;100.00;101698.26;1747292;81;21057;-80
2020/12/24 00:19:20;;;;;;;49.40;31.20;;;;;;;5.16;100.00;101699.95;1747495;82;21202;-80
2020/12/24 00:21:49;;;;;;;49.23;31.73;;;;;;;5.16;100.00;101697.82;1747490;82;21117;-80
2020/12/24 00:24:16;;;;;;;48.28;30.75;;;;;;;5.17;100.00;101695.66;1747562;81;21149;-80
2020/12/24 00:26:44;;;;;;;45.63;29.87;;;;;;;5.19;100.00;101698.58;1747536;81;22220;-80
2020/12/24 00:29:12;;;;;;;46.77;30.30;;;;;;;5.22;100.00;101700.22;1747432;81;21180;-80
2020/12/24 00:31:40;;;;;;;47.20;31.27;;;;;;;5.23;100.00;101696.30;1747541;82;21624;-80
2020/12/24 00:34:08;;;;;;;48.63;32.23;;;;;;;5.24;100.00;101699.29;1747518;81;21600;-81
2020/12/24 00:36:37;;;;;;;46.08;30.70;;;;;;;5.25;100.00;101691.13;1747405;81;21599;-81
2020/12/24 00:39:04;;;;;;;48.17;31.70;;;;;;;5.25;100.00;101694.55;1747498;82;22205;-80
2020/12/24 00:41:32;;;;;;;44.50;29.42;;;;;;;5.25;100.00;101691.98;1747434;82;21512;-81
2020/12/24 00:44:00;;;;;;;46.95;31.45;;;;;;;5.28;100.00;101694.91;1747547;82;21560;-81
2020/12/24 00:46:28;;;;;;;56.08;34.27;;;;;;;5.27;100.00;101690.63;1747523;81;21643;-81
2020/12/24 00:48:55;;;;;;;53.10;33.88;;;;;;;5.25;100.00;101693.27;1747567;82;21148;-81
2020/12/24 00:51:23;;;;;;;52.83;34.13;;;;;;;5.28;100.00;101694.47;1747583;82;22100;-81
2020/12/24 00:53:51;;;;;;;52.25;33.28;;;;;;;5.30;100.00;101683.67;1747370;82;21176;-80
2020/12/24 00:56:19;;;;;;;53.05;33.63;;;;;;;5.32;100.00;101673.35;1747572;82;21119;-81
2020/12/24 00:58:49;;;;;;;49.23;32.93;;;;;;;5.33;100.00;101678.44;1746410;81;21663;-81
2020/12/24 01:01:17;;;;;;;55.65;33.78;;;;;;;5.33;100.00;101678.44;1751998;81;21603;-81
2020/12/24 01:03:44;;;;;;;56.05;33.88;;;;;;;5.34;100.00;101676.72;1751719;81;22249;-81
2020/12/24 01:06:12;;;;;;;53.00;33.63;;;;;;;5.33;100.00;101677.16;1751704;81;21563;-81
2020/12/24 01:08:40;;;;;;;52.00;33.25;;;;;;;5.34;100.00;101675.43;1751890;81;21568;-80
2020/12/24 01:11:08;;;;;;;49.13;30.25;;;;;;;5.37;100.00;101673.20;1751843;81;21563;-81
2020/12/24 01:13:36;;;;;;;45.52;30.10;;;;;;;5.38;100.00;101672.33;1751676;81;21176;-81
2020/12/24 01:16:04;;;;;;;41.23;29.10;;;;;;;5.40;100.00;101667.53;1751927;81;21357;-81
2020/12/24 01:18:33;;;;;;;47.03;30.12;;;;;;;5.42;100.00;101659.34;1751726;81;21156;-80
2020/12/24 01:21:01;;;;;;;51.55;33.80;;;;;;;5.44;100.00;101659.28;1751643;81;21026;-81
2020/12/24 01:23:29;;;;;;;46.60;30.45;;;;;;;5.46;100.00;101667.78;1751882;81;21013;-81
2020/12/24 01:25:56;;;;;;;49.00;30.77;;;;;;;5.46;100.00;101669.08;1751924;81;21180;-81
2020/12/24 01:28:24;;;;;;;50.95;32.95;;;;;;;5.46;100.00;101664.77;1752007;81;22061;-81
2020/12/24 01:30:52;;;;;;;46.42;31.37;;;;;;;5.46;100.00;101654.92;1751704;81;21796;-82
2020/12/24 01:33:20;;;;;;;56.77;34.65;;;;;;;5.44;100.00;101656.27;1751665;81;21532;-82
2020/12/24 01:35:48;;;;;;;61.68;37.58;;;;;;;5.42;100.00;101659.78;1751866;81;21176;-81
2020/12/24 01:38:16;;;;;;;53.13;34.25;;;;;;;5.40;100.00;101653.81;1751642;81;21053;-81
2020/12/24 01:40:43;;;;;;;47.58;31.65;;;;;;;5.36;100.00;101648.38;1751771;81;21432;-81
2020/12/24 01:43:11;;;;;;;49.30;31.62;;;;;;;5.32;100.00;101651.48;1751713;81;21144;-81
2020/12/24 01:45:39;;;;;;;45.23;30.68;;;;;;;5.27;100.00;101645.16;1751869;81;21034;-81
2020/12/24 01:48:08;;;;;;;48.38;31.15;;;;;;;5.27;100.00;101644.31;1751718;81;21101;-81
2020/12/24 01:50:37;;;;;;;51.40;32.65;;;;;;;5.26;100.00;101643.47;1751755;81;20986;-81
2020/12/24 01:53:05;;;;;;;50.17;32.05;;;;;;;5.28;100.00;101642.15;1751909;81;22082;-81
2020/12/24 01:55:33;;;;;;;46.45;29.05;;;;;;;5.29;100.00;101636.97;1751708;81;21513;-81
2020/12/24 01:58:01;;;;;;;49.05;30.25;;;;;;;5.30;100.00;101644.22;1751701;81;21180;-81
2020/12/24 02:00:29;;;;;;;49.18;30.17;;;;;;;5.31;100.00;101639.05;1748555;81;21117;-81
2020/12/24 02:02:56;;;;;;;47.40;31.50;;;;;;;5.29;100.00;101640.84;1747508;82;21216;-82
2020/12/24 02:05:24;;;;;;;48.28;30.43;;;;;;;5.29;100.00;101643.41;1747473;82;21364;-81
2020/12/24 02:07:52;;;;;;;45.98;28.87;;;;;;;5.30;100.00;101640.36;1747478;82;21160;-81
2020/12/24 02:10:21;;;;;;;46.95;30.20;;;;;;;5.32;100.00;101645.89;1747564;82;21002;-81
2020/12/24 02:12:49;;;;;;;47.27;31.23;;;;;;;5.33;100.00;101641.13;1747320;81;21137;-81
2020/12/24 02:15:16;;;;;;;55.20;34.38;;;;;;;5.37;100.00;101632.02;1747484;81;21156;-81
2020/12/24 02:17:44;;;;;;;52.48;33.10;;;;;;;5.42;100.00;101635.33;1747596;82;22115;-81
2020/12/24 02:20:12;;;;;;;52.73;33.53;;;;;;;5.45;100.00;101628.80;1747453;82;21612;-81
2020/12/24 02:22:40;;;;;;;49.88;31.65;;;;;;;5.45;100.00;101627.07;1747521;82;21059;-81
2020/12/24 02:25:08;;;;;;;53.65;33.53;;;;;;;5.45;100.00;101627.07;1747467;82;21166;-81
2020/12/24 02:27:36;;;;;;;56.88;34.83;;;;;;;5.47;100.00;101630.44;1747497;82;21060;-81
2020/12/24 02:30:04;;;;;;;51.88;32.13;;;;;;;5.47;100.00;101632.16;1747525;82;22279;-81
2020/12/24 02:32:33;;;;;;;51.80;32.33;;;;;;;5.47;100.00;101633.45;1747543;82;21532;-81
2020/12/24 02:35:01;;;;;;;51.18;31.27;;;;;;;5.47;100.00;101628.30;1747369;82;21592;-82
2020/12/24 02:37:29;;;;;;;53.60;32.20;;;;;;;5.46;100.00;101640.32;1747565;81;21580;-81
2020/12/24 02:39:57;;;;;;;52.70;32.98;;;;;;;5.47;100.00;101638.16;1747430;82;21183;-81
2020/12/24 02:42:24;;;;;;;53.08;32.50;;;;;;;5.47;100.00;101634.73;1747615;82;22189;-81
2020/12/24 02:44:52;;;;;;;49.00;31.00;;;;;;;5.48;100.00;101637.28;1747438;82;21631;-81
2020/12/24 02:47:20;;;;;;;47.10;30.37;;;;;;;5.49;100.00;101644.09;1747622;81;21531;-82
2020/12/24 02:49:49;;;;;;;48.25;30.37;;;;;;;5.47;100.00;101641.17;1745932;82;21073;-81
2020/12/24 02:52:17;;;;;;;46.95;28.83;;;;;;;5.44;100.00;101645.12;1747637;81;21120;-81
2020/12/24 02:54:45;;;;;;;44.35;28.20;;;;;;;5.44;100.00;101641.26;1747404;82;21202;-82
2020/12/24 02:57:13;;;;;;;44.38;28.98;;;;;;;5.46;100.00;101630.46;1747519;82;21143;-82
2020/12/24 02:59:43;;;;;;;48.55;28.42;;;;;;;5.47;100.00;101631.72;1744890;81;21484;-81
2020/12/24 03:02:12;;;;;;;46.77;29.18;;;;;;;5.47;100.00;101624.00;1751605;81;21175;-81
2020/12/24 03:04:39;;;;;;;50.75;29.80;;;;;;;5.46;100.00;101623.59;1751976;81;21104;-82
2020/12/24 03:07:07;;;;;;;47.62;29.82;;;;;;;5.45;100.00;101624.50;1751899;81;22154;-82
2020/12/24 03:09:35;;;;;;;43.50;28.02;;;;;;;5.43;100.00;101623.68;1751788;81;21085;-81
2020/12/24 03:12:05;;;;;;;46.65;28.70;;;;;;;5.45;100.00;101631.38;1751874;81;20930;-81
2020/12/24 03:14:33;;;;;;;50.63;31.48;;;;;;;5.45;100.00;101628.36;1751822;81;21081;-81
2020/12/24 03:17:01;;;;;;;49.30;30.55;;;;;;;5.44;100.00;101628.39;1751878;81;21097;-81
2020/12/24 03:19:29;;;;;;;43.85;28.42;;;;;;;5.45;100.00;101623.21;1751805;81;21198;-81
2020/12/24 03:21:58;;;;;;;45.48;28.50;;;;;;;5.42;100.00;101618.59;1751925;81;21181;-81
2020/12/24 03:24:26;;;;;;;43.10;29.12;;;;;;;5.39;100.00;101613.54;1725439;81;21182;-82
2020/12/24 03:26:54;;;;;;;46.73;29.25;;;;;;;5.36;100.00;101611.05;1752558;81;21104;-81
2020/12/24 03:29:22;;;;;;;48.65;29.00;;;;;;;5.37;100.00;101610.99;1753079;81;21038;-81
2020/12/24 03:31:50;;;;;;;44.93;29.37;;;;;;;5.39;100.00;101609.67;1753157;81;21164;-81
2020/12/24 03:34:18;;;;;;;46.28;28.95;;;;;;;5.40;100.00;101616.05;1752732;81;21094;-82
2020/12/24 03:36:46;;;;;;;45.30;27.58;;;;;;;5.42;100.00;101609.59;1752721;81;21069;-82
2020/12/24 03:39:14;;;;;;;44.38;28.10;;;;;;;5.41;100.00;101610.46;1752450;81;21124;-82
2020/12/24 03:41:41;;;;;;;43.25;27.45;;;;;;;5.37;100.00;101617.42;1752775;81;21061;-82
2020/12/24 03:44:09;;;;;;;50.92;29.42;;;;;;;5.36;100.00;101612.34;1753460;81;21197;-81
2020/12/24 03:46:38;;;;;;;41.88;26.80;;;;;;;5.37;100.00;101611.44;1752599;81;21199;-82
2020/12/24 03:49:06;;;;;;;44.85;28.73;;;;;;;5.38;100.00;101611.84;1751868;81;21124;-82
2020/12/24 03:51:34;;;;;;;47.88;28.95;;;;;;;5.38;100.00;101612.69;1751799;81;21488;-81
2020/12/24 03:54:02;;;;;;;47.85;28.23;;;;;;;5.40;100.00;101611.34;1751725;81;21529;-81
2020/12/24 03:56:30;;;;;;;44.77;28.90;;;;;;;5.43;100.00;101612.53;1751804;81;22148;-81
2020/12/24 03:58:58;;;;;;;47.58;29.48;;;;;;;5.47;100.00;101615.42;1751786;81;21595;-81
2020/12/24 04:01:26;;;;;;;46.05;28.87;;;;;;;5.50;100.00;101606.32;1747953;81;21112;-82
2020/12/24 04:03:54;;;;;;;43.28;27.90;;;;;;;5.52;100.00;101598.94;1747788;82;21585;-82
2020/12/24 04:06:22;;;;;;;52.93;31.45;;;;;;;5.57;100.00;101598.81;1747664;82;21775;-82
2020/12/24 04:08:50;;;;;;;48.20;30.15;;;;;;;5.59;100.00;101596.59;1747606;82;22231;-82
2020/12/24 04:11:19;;;;;;;46.80;28.10;;;;;;;5.60;100.00;101594.86;1747558;82;21173;-82
2020/12/24 04:13:47;;;;;;;46.00;28.12;;;;;;;5.58;100.00;101593.64;1747582;82;21025;-82
2020/12/24 04:16:22;;;;;;;45.38;28.45;;;;;;;5.60;100.00;101592.29;1747477;81;21068;-82
2020/12/24 04:18:50;;;;;;;49.27;29.48;;;;;;;5.61;100.00;101592.25;1747524;82;21148;-82
2020/12/24 04:21:19;;;;;;;45.73;28.27;;;;;;;5.61;100.00;101590.13;1747378;81;21335;-82
2020/12/24 04:23:47;;;;;;;49.38;29.70;;;;;;;5.62;100.00;101597.78;1747633;82;21591;-82
2020/12/24 04:26:23;;;;;;;47.62;29.10;;;;;;;5.59;100.00;101600.45;1747313;81;21184;-82
2020/12/24 04:28:51;;;;;;;45.05;29.82;;;;;;;5.57;100.00;101597.53;1747480;82;21184;-82
2020/12/24 04:31:19;;;;;;;47.90;30.50;;;;;;;5.56;100.00;101596.69;1747554;81;21096;-83
2020/12/24 04:33:47;;;;;;;51.65;30.43;;;;;;;5.58;100.00;101600.52;1747544;82;21219;-82
2020/12/24 04:36:15;;;;;;;49.83;30.95;;;;;;;5.60;100.00;101600.02;1747785;81;21623;-83
2020/12/24 04:38:43;;;;;;;46.92;29.10;;;;;;;5.59;100.00;101612.04;1747345;82;21042;-82
2020/12/24 04:41:11;;;;;;;48.50;29.92;;;;;;;5.57;100.00;101607.39;1747547;82;21121;-82
2020/12/24 04:43:39;;;;;;;50.15;31.20;;;;;;;5.57;99.97;101605.26;1747512;82;21121;-83
2020/12/24 04:46:07;;;;;;;47.43;29.82;;;;;;;5.59;100.00;101615.90;1747502;82;21581;-82
2020/12/24 04:48:36;;;;;;;59.05;33.15;;;;;;;5.63;100.00;101612.80;1747429;82;21021;-83
2020/12/24 04:51:05;;;;;;;55.48;33.53;;;;;;;5.66;100.00;101613.55;1720330;82;21474;-83
2020/12/24 04:53:33;;;;;;;49.98;32.05;;;;;;;5.69;100.00;101608.73;1724537;82;21137;-82
2020/12/24 04:56:03;;;;;;;49.73;31.37;;;;;;;5.68;100.00;101615.61;1724589;82;21129;-82
2020/12/24 04:58:31;;;;;;;50.80;32.23;;;;;;;5.68;99.92;101625.91;1724597;82;21352;-82
2020/12/24 05:00:59;;;;;;;50.28;30.70;;;;;;;5.66;99.74;101626.86;1747325;81;21160;-82
2020/12/24 05:03:27;;;;;;;50.08;31.65;;;;;;;5.66;99.70;101616.56;1747612;81;21147;-83
2020/12/24 05:05:57;;;;;;;48.98;30.57;;;;;;;5.67;99.95;101623.41;1747444;82;21160;-83
2020/12/24 05:08:24;;;;;;;51.55;32.45;;;;;;;5.71;100.00;101623.72;1747496;82;21160;-83
2020/12/24 05:11:04;;;;;;;48.87;30.35;;;;;;;5.72;100.00;101620.23;1747425;81;21295;-83
2020/12/24 05:13:33;;;;;;;47.67;29.35;;;;;;;5.75;100.00;101615.83;1747463;81;21608;-82
2020/12/24 05:16:14;;;;;;;53.50;32.20;;;;;;;5.77;100.00;101610.20;1699028;84;21682;-83
2020/12/24 05:18:42;;;;;;;50.17;31.65;;;;;;;5.78;100.00;101603.30;1747317;82;21069;-83
2020/12/24 05:21:10;;;;;;;55.98;33.45;;;;;;;5.79;100.00;101612.28;1698887;84;21231;-83
2020/12/24 05:23:38;;;;;;;58.15;34.27;;;;;;;5.80;100.00;101604.95;1747511;82;21362;-83
2020/12/24 05:26:19;;;;;;;53.35;32.88;;;;;;;5.78;99.92;101607.16;1698858;84;21148;-83
2020/12/24 05:28:46;;;;;;;55.23;33.33;;;;;;;5.77;99.73;101615.36;1736748;82;21093;-83
2020/12/24 05:31:34;;;;;;;52.75;32.67;;;;;;;5.77;99.75;101611.50;1700522;84;20941;-83
2020/12/24 05:34:02;;;;;;;58.78;34.10;;;;;;;5.79;99.66;101614.00;1747593;82;21208;-84
2020/12/24 05:36:30;;;;;;;61.18;36.17;;;;;;;5.77;99.63;101610.20;1698997;84;21274;-84
2020/12/24 05:38:58;;;;;;;56.42;34.27;;;;;;;5.79;99.60;101607.56;1747392;82;21168;-83
2020/12/24 05:41:37;;;;;;;55.95;33.20;;;;;;;5.77;99.48;101610.20;1699089;84;21743;-84
2020/12/24 05:44:11;;;;;;;51.48;33.15;;;;;;;5.78;99.34;101616.17;1747465;82;21525;-84
2020/12/24 05:46:48;;;;;;;58.87;34.53;;;;;;;5.75;99.21;101614.98;1699001;84;21167;-84
2020/12/24 05:49:21;;;;;;;62.30;36.30;;;;;;;5.74;99.28;101616.71;1747809;82;21556;-84
2020/12/24 05:51:58;;;;;;;57.88;35.80;;;;;;;5.76;99.59;101612.81;1729597;83;21229;-84
2020/12/24 05:54:28;;;;;;;55.33;34.43;;;;;;;5.78;99.63;101603.30;1674914;84;21068;-83
2020/12/24 05:56:57;;;;;;;54.15;34.18;;;;;;;5.76;99.57;101605.94;1747414;82;21112;-83
2020/12/24 05:59:27;;;;;;;61.55;35.23;;;;;;;5.74;99.45;101610.74;1729640;82;21127;-84
2020/12/24 06:02:15;;;;;;;59.60;35.52;;;;;;;5.72;99.38;101618.95;1750602;81;21164;-83
2020/12/24 06:04:49;;;;;;;58.85;34.20;;;;;;;5.65;99.24;101615.71;1751829;81;21057;-85
2020/12/24 06:07:26;;;;;;;52.38;32.98;;;;;;;5.54;99.05;101620.80;1751884;80;21168;-82
2020/12/24 06:09:55;;;;;;;49.50;30.43;;;;;;;5.50;99.37;101614.89;1751542;82;21172;-84
2020/12/24 06:12:27;;;;;;;51.30;30.80;;;;;;;5.49;99.51;101613.67;1684674;82;21106;-83
2020/12/24 06:14:59;;;;;;;54.48;31.55;;;;;;;5.44;99.48;101606.52;1752051;80;22103;-85
2020/12/24 06:17:28;;;;;;;53.28;31.33;;;;;;;5.42;99.55;101611.72;1751371;81;21077;-85
2020/12/24 06:19:56;;;;;;;48.52;30.43;;;;;;;5.41;99.82;101608.73;1751881;82;21009;-84
2020/12/24 06:22:26;;;;;;;52.60;30.97;;;;;;;5.44;100.00;101603.50;1751748;81;21139;-86
2020/12/24 06:25:00;;;;;;;50.92;32.10;;;;;;;5.45;100.00;101604.34;1751683;81;21088;-84
2020/12/24 06:27:42;;;;;;;56.65;32.20;;;;;;;5.42;100.00;101604.44;1751809;81;21649;-85
2020/12/24 06:30:17;;;;;;;49.93;29.82;;;;;;;5.36;100.00;101608.02;1751434;81;21175;-87
2020/12/24 06:32:50;;;;;;;51.23;31.90;;;;;;;5.38;100.00;101612.69;1718589;83;21033;-85
2020/12/24 06:35:36;;;;;;;;;;;;;;;5.41;100.00;101604.88;1703320;84;21176;-87
2020/12/24 06:38:08;;;;;;;58.90;33.42;;;;;;;5.44;100.00;101603.50;1701061;84;20241;-85
2020/12/24 06:40:38;;;;;;;49.67;30.52;;;;;;;5.49;100.00;101590.03;1701155;84;21432;-84
2020/12/24 06:43:08;;;;;;;50.85;29.87;;;;;;;5.56;100.00;101594.55;1751884;81;21680;-84
2020/12/24 06:45:40;;;;;;;50.95;31.57;;;;;;;5.61;100.00;101601.70;1751863;81;21100;-84
2020/12/24 06:48:21;;;;;;;58.90;34.20;;;;;;;5.69;100.00;101606.16;1752041;81;21171;-84
2020/12/24 06:50:54;;;;;;;57.70;34.90;;;;;;;5.76;100.00;101600.78;1753476;80;21101;-85
2020/12/24 06:53:36;;;;;;;55.77;34.60;;;;;;;5.85;100.00;101604.80;1781059;80;22148;-84
2020/12/24 06:56:27;;;;;;;52.83;32.40;;;;;;;5.93;100.00;101596.88;1738369;82;26942;-85
2020/12/24 06:59:01;;;;;;;53.42;33.78;;;;;;;6.00;100.00;101592.73;1750308;81;21038;-86
2020/12/24 07:01:30;;;;;;;53.13;32.05;;;;;;;5.97;99.55;101599.75;1724605;81;21171;-86
2020/12/24 07:04:04;;;;;;;52.13;32.60;;;;;;;5.99;99.59;101591.52;1718828;82;21219;-86
2020/12/24 07:06:49;;;;;;;55.40;34.55;;;;;;;6.05;99.65;101587.45;1734246;80;21262;-86
2020/12/24 07:09:26;;;;;;;52.03;31.42;;;;;;;6.10;99.55;101595.42;1755250;81;21247;-84
2020/12/24 07:11:55;;;;;;;52.20;32.65;;;;;;;6.14;99.31;101600.03;1752969;81;21650;-85
2020/12/24 07:14:29;;;;;;;56.70;34.20;;;;;;;6.15;99.20;101602.57;1723352;81;21249;-85
2020/12/24 07:17:00;;;;;;;49.83;31.93;;;;;;;6.18;99.12;101598.61;1755243;80;21211;-85
2020/12/24 07:19:30;;;;;;;53.10;33.90;;;;;;;6.26;99.20;101597.05;1722282;81;21518;-82
2020/12/24 07:21:58;;;;;;;52.85;33.28;;;;;;;6.32;99.03;101596.84;1719431;82;21021;-85
2020/12/24 07:24:27;;;;;;;55.50;33.92;;;;;;;6.38;98.83;101597.47;1674073;83;21139;-85
2020/12/24 07:27:00;;;;;;;54.42;33.05;;;;;;;6.43;98.62;101590.04;1719389;82;21131;-87
2020/12/24 07:29:30;;;;;;;48.63;32.75;;;;;;;6.46;98.18;101587.35;1719852;83;21155;-85
2020/12/24 07:32:02;;;;;;;47.60;29.98;;;;;;;6.50;97.94;101583.34;1719559;82;21204;-84
2020/12/24 07:34:39;;;;;;;50.75;32.08;;;;;;;6.56;97.97;101583.13;1719249;82;21091;-86
2020/12/24 07:37:08;;;;;;;;;;;;;;;6.61;97.74;101579.08;1722057;82;21283;-84
2020/12/24 07:39:37;;;;;;;50.35;30.20;;;;;;;6.63;97.50;101576.02;1719399;82;20148;-85
2020/12/24 07:42:05;;;;;;;46.85;29.85;;;;;;;6.58;97.06;101573.59;1730173;81;21111;-86
2020/12/24 07:44:37;;;;;;;44.80;28.40;;;;;;;6.56;97.04;101572.81;1736843;81;21372;-86
2020/12/24 07:47:05;;;;;;;47.33;31.45;;;;;;;6.60;97.27;101575.69;1722530;81;20966;-85
2020/12/24 07:49:34;;;;;;;48.35;31.15;;;;;;;6.65;97.26;101579.37;1731666;81;21088;-84
2020/12/24 07:52:02;;;;;;;49.55;30.97;;;;;;;6.69;97.13;101577.94;1752542;81;21239;-84
2020/12/24 07:54:32;;;;;;;50.30;31.68;;;;;;;6.75;96.86;101585.45;1739682;81;21095;-83
2020/12/24 07:57:24;;;;;;;44.00;29.15;;;;;;;6.79;96.71;101587.48;1718093;82;23434;-86
2020/12/24 08:00:01;;;;;;;49.08;29.57;;;;;;;6.85;96.56;101589.40;1722270;82;21162;-85
2020/12/24 08:03:02;;;;;;;50.12;31.82;;;;;;;6.88;96.18;101589.28;1683392;84;21199;-86
2020/12/24 08:05:31;;;;;;;50.23;32.85;;;;;;;6.90;96.07;101584.90;1674727;84;21235;-83
2020/12/24 08:08:00;;;;;;;43.95;28.95;;;;;;;6.96;95.88;101587.70;1672325;84;21160;-83
2020/12/24 08:10:33;;;;;;;51.53;31.82;;;;;;;7.02;95.66;101576.34;1683666;82;21261;-85
2020/12/24 08:13:04;;;;;;;51.08;32.60;;;;;;;7.06;95.35;101572.27;1681080;84;21093;-84
2020/12/24 08:15:33;;;;;;;53.50;32.80;;;;;;;7.05;95.13;101568.48;1703751;82;21504;-83
2020/12/24 08:18:02;;;;;;;46.70;31.60;;;;;;;7.07;95.43;101560.22;1697744;82;21648;-83
2020/12/24 08:20:56;;;;;;;51.18;31.82;;;;;;;7.15;95.36;101560.76;1661049;84;21214;-83
2020/12/24 08:23:51;;;;;;;47.33;30.10;;;;;;;7.21;95.31;101556.20;1712586;83;21205;-84
2020/12/24 08:26:21;;;;;;;49.18;30.57;;;;;;;7.29;95.23;101548.19;1697245;83;21184;-82
2020/12/24 08:28:57;;;;;;;47.58;30.45;;;;;;;7.38;95.39;101547.38;1700355;83;21050;-84
2020/12/24 08:31:30;;;;;;;43.75;28.25;;;;;;;7.47;95.30;101555.69;1724769;81;21232;-85
2020/12/24 08:34:00;;;;;;;54.90;34.05;;;;;;;7.58;95.15;101566.42;1744152;81;21191;-84
2020/12/24 08:36:39;;;;;;;41.68;27.22;;;;;;;7.67;94.88;101567.34;1752964;81;21334;-83
2020/12/24 08:39:35;;;;;;;43.23;27.37;;;;;;;7.84;94.62;101545.56;1926336;74;22356;-86
2020/12/24 08:42:07;;;;;;;39.13;25.72;;;;;;;7.89;94.11;101547.05;1892978;74;20956;-87
2020/12/24 08:44:37;;;;;;;38.08;24.72;;;;;;;7.97;93.39;101542.42;1914646;74;21187;-84
2020/12/24 08:47:08;;;;;;;39.67;25.92;;;;;;;8.02;92.70;101551.27;1850781;77;20994;-87
2020/12/24 08:49:43;;;;;;;40.03;26.35;;;;;;;7.99;92.25;101545.78;1845345;77;20930;-86
2020/12/24 08:52:20;;;;;;;40.08;25.35;;;;;;;8.04;91.79;101547.34;1807343;77;21191;-86
2020/12/24 08:55:06;;;;;;;36.30;24.47;;;;;;;8.10;91.74;101540.17;1812181;78;21009;-85
2020/12/24 08:57:34;;;;;;;36.03;24.07;;;;;;;8.16;91.60;101542.50;1814416;78;21294;-85
2020/12/24 09:00:08;;;;;;;35.30;23.67;;;;;;;8.29;91.20;101531.22;1800196;78;21075;-85
2020/12/24 09:02:36;;;;;;;32.40;22.25;;;;;;;8.37;90.92;101527.38;1798791;78;21589;-84
2020/12/24 09:05:06;;;;;;;37.85;25.35;;;;;;;8.46;90.68;101524.39;1805879;76;21105;-85
2020/12/24 09:07:39;;;;;;;34.53;23.05;;;;;;;8.54;90.47;101529.25;1829847;77;21099;-84
2020/12/24 09:10:20;;;;;;;36.68;24.70;;;;;;;8.62;90.14;101523.27;1810279;78;22067;-83
2020/12/24 09:15:33;;;;;;;37.40;24.55;;;;;;;8.76;89.28;101502.80;1816778;78;22704;-82
2020/12/24 09:18:06;;;;;;;36.20;24.05;;;;;;;8.75;88.84;101506.73;1788743;80;21144;-82
2020/12/24 09:20:38;;;;;;;38.15;24.72;;;;;;;8.75;88.92;101499.82;1774062;80;22247;-82
2020/12/24 09:23:12;;;;;;;31.93;21.85;;;;;;;8.75;89.12;101492.05;1778627;80;21030;-83
2020/12/24 09:25:43;;;;;;;34.88;23.32;;;;;;;8.80;88.96;101491.41;1716747;83;20992;-83
2020/12/24 09:28:25;;;;;;;36.10;22.52;;;;;;;8.87;89.00;101482.44;1718014;81;21034;-83
2020/12/24 09:31:07;;;;;;;37.60;24.27;;;;;;;8.95;88.50;101479.51;1745852;81;21038;-84
2020/12/24 09:33:34;;;;;;;35.43;23.73;;;;;;;9.03;88.29;101479.97;1722606;83;21423;-83
2020/12/24 09:36:04;;;;;;;32.93;23.07;;;;;;;9.13;88.19;101472.16;1712020;83;21120;-82
2020/12/24 09:38:33;;;;;;;33.33;21.93;;;;;;;9.22;87.87;101473.02;1753829;81;20952;-81
2020/12/24 09:41:02;;;;;;;35.30;24.47;;;;;;;9.32;87.64;101468.24;1713994;83;21039;-84
2020/12/24 09:43:30;;;;;;;39.73;24.75;;;;;;;9.38;87.14;101463.61;1744560;80;21262;-83
2020/12/24 09:46:00;;;;;;;34.13;23.15;;;;;;;9.40;86.87;101456.63;1734391;81;21646;-84
2020/12/24 09:48:28;;;;;;;36.70;24.25;;;;;;;9.44;86.81;101449.55;1724082;83;21013;-81
2020/12/24 09:50:57;;;;;;;35.90;24.52;;;;;;;9.49;86.77;101435.89;1728580;80;21093;-82
2020/12/24 09:53:30;;;;;;;35.95;23.70;;;;;;;9.55;86.53;101435.59;1711091;83;21081;-84
2020/12/24 09:56:02;;;;;;;34.73;23.62;;;;;;;9.70;86.24;101434.82;1736666;80;21157;-83
2020/12/24 09:58:31;;;;;;;37.20;23.77;;;;;;;9.93;85.84;101432.37;1729400;81;21362;-83
2020/12/24 10:01:01;;;;;;;36.03;24.05;;;;;;;10.19;84.80;101425.42;1730859;81;21078;-83
2020/12/24 10:03:29;;;;;;;34.13;23.47;;;;;;;10.38;83.69;101411.86;1725663;81;21142;-84
2020/12/24 10:05:57;;;;;;;36.13;24.55;;;;;;;10.66;82.81;101406.01;1720793;82;21184;-83
2020/12/24 10:08:25;;;;;;;38.92;25.55;;;;;;;10.90;82.13;101398.19;1722247;83;21706;-84
2020/12/24 10:10:53;;;;;;;34.85;23.20;;;;;;;11.22;81.58;101388.58;1722062;83;21153;-82
2020/12/24 10:13:22;;;;;;;32.42;22.65;;;;;;;11.53;80.32;101388.94;1715857;82;21539;-81
2020/12/24 10:15:50;;;;;;;32.45;23.27;;;;;;;11.68;78.61;101393.23;1728898;82;21054;-84
2020/12/24 10:18:18;;;;;;;32.45;23.35;;;;;;;11.64;77.77;101390.01;1712157;83;21240;-82
2020/12/24 10:20:46;;;;;;;32.83;23.20;;;;;;;11.57;77.78;101400.38;1751402;80;21201;-85
2020/12/24 10:23:15;;;;;;;34.92;23.32;;;;;;;11.46;77.53;101392.81;1768638;81;21372;-83
2020/12/24 10:25:43;;;;;;;34.03;22.52;;;;;;;11.19;77.63;101395.71;1768124;81;21073;-82
2020/12/24 10:28:11;;;;;;;31.70;22.25;;;;;;;10.94;78.23;101397.11;1770358;80;20928;-82
2020/12/24 10:30:38;;;;;;;32.20;23.27;;;;;;;10.84;79.01;101395.94;1769035;80;21216;-83
2020/12/24 10:33:06;;;;;;;33.60;21.93;;;;;;;10.81;79.03;101400.45;1763852;80;21193;-86
2020/12/24 10:35:36;;;;;;;32.85;21.97;;;;;;;10.72;79.62;101399.67;1766003;80;22217;-82
2020/12/24 10:38:07;;;;;;;32.20;22.25;;;;;;;10.67;80.02;101395.17;1766494;80;21224;-84
2020/12/24 10:40:36;;;;;;;31.30;21.23;;;;;;;10.64;80.03;101393.59;1766413;80;21141;-86
2020/12/24 10:43:05;;;;;;;30.30;22.07;;;;;;;10.52;80.24;101396.40;1690171;83;21086;-84
2020/12/24 10:45:33;;;;;;;29.45;21.57;;;;;;;10.50;80.17;101382.65;1758817;81;21193;-84
2020/12/24 10:48:03;;;;;;;32.08;21.27;;;;;;;10.41;80.74;101387.50;1704265;84;22048;-85
2020/12/24 10:50:31;;;;;;;30.90;21.05;;;;;;;10.39;80.95;101376.37;1774286;80;21252;-85
2020/12/24 10:53:02;;;;;;;34.80;22.37;;;;;;;10.41;81.30;101374.53;1767094;80;21015;-84
2020/12/24 10:55:31;;;;;;;34.08;21.02;;;;;;;10.38;81.16;101375.53;1765804;80;21058;-83
2020/12/24 10:57:59;;;;;;;33.28;20.90;;;;;;;10.33;81.62;101365.87;1763449;81;21668;-84
2020/12/24 11:00:29;;;;;;;32.50;21.60;;;;;;;10.34;82.33;101363.64;1762109;80;21202;-84
2020/12/24 11:02:57;;;;;;;30.08;21.20;;;;;;;10.36;82.11;101355.33;1770826;80;20991;-86
2020/12/24 11:05:30;;;;;;;33.70;22.15;;;;;;;10.41;82.33;101345.98;1754611;80;21161;-85
2020/12/24 11:08:00;;;;;;;34.37;22.77;;;;;;;10.48;82.14;101340.84;1768133;80;21038;-82
2020/12/24 11:10:30;;;;;;;34.23;22.15;;;;;;;10.51;81.90;101341.97;1768765;80;21007;-85
2020/12/24 11:12:59;;;;;;;29.15;20.97;;;;;;;10.55;82.13;101333.11;1764554;80;21482;-84
2020/12/24 11:15:27;;;;;;;31.42;22.45;;;;;;;10.57;82.12;101332.55;1700174;82;21161;-85
2020/12/24 11:17:57;;;;;;;31.50;22.22;;;;;;;10.50;81.74;101326.02;1706348;83;21046;-83
2020/12/24 11:20:25;;;;;;;30.77;22.75;;;;;;;10.47;82.07;101325.73;1761375;80;21650;-85
2020/12/24 11:22:53;;;;;;;35.58;22.55;;;;;;;10.48;82.04;101330.47;1743713;82;21208;-84
2020/12/24 11:25:23;;;;;;;31.17;22.50;;;;;;;10.45;82.10;101323.69;1761170;81;21390;-85
2020/12/24 11:27:51;;;;;;;35.38;22.58;;;;;;;10.43;82.09;101327.30;1767727;81;21070;-85
2020/12/24 11:30:19;;;;;;;34.33;23.32;;;;;;;10.40;81.67;101322.28;1767927;81;21098;-84
2020/12/24 11:32:47;;;;;;;35.43;23.30;;;;;;;10.38;81.75;101317.61;1773327;80;21014;-82